createdAt,value
2023-03-27T00:00:59.981Z,6.31
2023-03-27T00:04:03.918Z,6.29
2023-03-27T00:07:09.207Z,6.34
2023-03-27T00:10:13.610Z,6.25
2023-03-27T00:13:17.898Z,6.27
2023-03-27T00:16:23.051Z,6.28
2023-03-27T00:19:26.761Z,6.35
2023-03-27T00:22:30.840Z,6.32
2023-03-27T00:25:35.398Z,6.41
2023-03-27T00:28:39.223Z,6.40
2023-03-27T00:31:43.165Z,6.43
2023-03-27T00:34:47.257Z,6.43
2023-03-27T00:37:51.332Z,6.39
2023-03-27T00:40:56.445Z,6.44
2023-03-27T00:44:00.477Z,6.42
2023-03-27T00:47:04.746Z,6.50
2023-03-27T00:50:11.052Z,6.45
2023-03-27T00:53:22.470Z,6.43
2023-03-27T00:56:26.418Z,6.36
2023-03-27T00:59:32.279Z,6.42
2023-03-27T01:02:36.722Z,6.36
2023-03-27T01:05:41.175Z,6.36
2023-03-27T01:08:46.221Z,6.29
2023-03-27T01:11:53.243Z,6.29
2023-03-27T01:15:03.668Z,6.26
2023-03-27T01:18:07.589Z,6.29
2023-03-27T01:21:17.373Z,6.24
2023-03-27T01:24:24.353Z,6.19
2023-03-27T01:27:38.016Z,6.10
2023-03-27T01:30:49.056Z,6.04
2023-03-27T01:34:01.832Z,6.01
2023-03-27T01:37:08.780Z,5.94
2023-03-27T01:40:16.465Z,5.94
2023-03-27T01:43:32.597Z,5.93
2023-03-27T01:46:41.847Z,5.87
2023-03-27T01:49:51.388Z,5.83
2023-03-27T01:53:11.584Z,5.82
2023-03-27T01:56:18.376Z,5.84
2023-03-27T01:59:24.631Z,5.88
2023-03-27T02:02:31.066Z,5.90
2023-03-27T02:05:56.694Z,5.86
2023-03-27T02:09:08.522Z,5.81
2023-03-27T02:12:15.373Z,5.69
2023-03-27T02:15:23.833Z,5.76
2023-03-27T02:18:32.391Z,5.70
2023-03-27T02:21:36.446Z,5.73
2023-03-27T02:24:41.323Z,5.73
2023-03-27T02:27:47.638Z,5.71
2023-03-27T02:31:32.915Z,5.70
2023-03-27T02:34:31.678Z,5.73
2023-03-27T02:37:47.756Z,5.72
2023-03-27T02:40:51.490Z,5.74
2023-03-27T02:44:03.646Z,5.75
2023-03-27T02:47:10.183Z,5.71
2023-03-27T02:50:17.022Z,5.70
2023-03-27T02:53:22.779Z,5.61
2023-03-27T02:56:28.340Z,5.63
2023-03-27T02:59:35.604Z,5.62
2023-03-27T03:02:40.153Z,5.60
2023-03-27T03:05:44.462Z,5.53
2023-03-27T03:08:48.956Z,5.48
2023-03-27T03:11:53.673Z,5.42
2023-03-27T03:14:57.677Z,5.40
2023-03-27T03:18:01.577Z,5.37
2023-03-27T03:21:05.810Z,5.46
2023-03-27T03:24:10.481Z,5.34
2023-03-27T03:27:14.331Z,5.25
2023-03-27T03:30:19.336Z,5.23
2023-03-27T03:33:23.394Z,5.22
2023-03-27T03:36:30.762Z,5.22
2023-03-27T03:39:34.428Z,5.21
2023-03-27T03:42:48.030Z,5.16
2023-03-27T03:45:52.562Z,5.19
2023-03-27T03:48:58.349Z,5.14
2023-03-27T03:52:04.969Z,5.13
2023-03-27T03:55:12.527Z,5.06
2023-03-27T03:58:16.467Z,5.10
2023-03-27T04:01:21.624Z,5.04
2023-03-27T04:04:25.832Z,4.94
2023-03-27T04:07:31.465Z,4.90
2023-03-27T04:10:37.278Z,4.75
2023-03-27T04:13:41.287Z,4.70
2023-03-27T04:16:45.484Z,4.56
2023-03-27T04:19:49.867Z,4.58
2023-03-27T04:22:54.432Z,4.54
2023-03-27T04:26:03.886Z,4.55
2023-03-27T04:29:10.379Z,4.51
2023-03-27T04:32:19.145Z,4.42
2023-03-27T04:35:23.524Z,4.52
2023-03-27T04:38:28.217Z,4.44
2023-03-27T04:41:32.589Z,4.43
2023-03-27T04:44:37.617Z,4.31
2023-03-27T04:47:42.856Z,4.32
2023-03-27T04:50:50.930Z,4.37
2023-03-27T04:53:56.429Z,4.39
2023-03-27T04:57:03.826Z,4.31
2023-03-27T05:00:19.089Z,4.26
2023-03-27T05:03:27.682Z,4.08
2023-03-27T05:06:32.930Z,4.06
2023-03-27T05:09:36.698Z,3.95
2023-03-27T05:12:50.440Z,3.88
2023-03-27T05:15:54.365Z,3.86
2023-03-27T05:18:58.402Z,3.90
2023-03-27T05:22:02.219Z,3.90
2023-03-27T05:25:06.812Z,3.95
2023-03-27T05:28:11.390Z,4.04
2023-03-27T05:31:15.667Z,4.04
2023-03-27T05:34:20.924Z,4.03
2023-03-27T05:37:27.044Z,4.04
2023-03-27T05:40:31.530Z,4.48
2023-03-27T05:43:36.331Z,4.67
2023-03-27T05:46:42.555Z,5.19
2023-03-27T05:49:46.790Z,5.37
2023-03-27T05:53:04.525Z,5.33
2023-03-27T05:56:09.617Z,5.34
2023-03-27T05:59:13.702Z,4.99
2023-03-27T06:02:20.684Z,4.67
2023-03-27T06:05:29.887Z,4.45
2023-03-27T06:08:34.987Z,4.32
2023-03-27T06:11:40.687Z,4.25
2023-03-27T06:14:44.521Z,4.09
2023-03-27T06:17:48.434Z,4.11
2023-03-27T06:20:52.742Z,4.19
2023-03-27T06:23:56.956Z,4.27
2023-03-27T06:27:01.218Z,4.48
2023-03-27T06:30:05.948Z,4.53
2023-03-27T06:33:09.691Z,4.45
2023-03-27T06:36:13.423Z,4.22
2023-03-27T06:39:17.865Z,4.13
2023-03-27T06:42:21.851Z,4.14
2023-03-27T06:45:27.403Z,4.17
2023-03-27T06:48:31.745Z,4.19
2023-03-27T06:51:36.143Z,4.30
2023-03-27T06:54:40.430Z,4.30
2023-03-27T06:57:44.970Z,4.40
2023-03-27T07:00:49.757Z,4.46
2023-03-27T07:03:53.777Z,4.58
2023-03-27T07:06:57.572Z,4.65
2023-03-27T07:10:01.653Z,5.07
2023-03-27T07:13:06.207Z,5.93
2023-03-27T07:16:12.346Z,6.83
2023-03-27T07:19:16.431Z,7.47
2023-03-27T07:22:21.036Z,7.67
2023-03-27T07:25:26.207Z,8.02
2023-03-27T07:28:30.631Z,8.00
2023-03-27T07:31:54.625Z,8.69
2023-03-27T07:34:58.770Z,8.37
2023-03-27T07:38:03.353Z,8.22
2023-03-27T07:41:07.348Z,8.16
2023-03-27T07:44:11.956Z,8.62
2023-03-27T07:47:16.582Z,8.39
2023-03-27T07:50:21.660Z,8.14
2023-03-27T07:53:34.043Z,8.02
2023-03-27T07:56:41.949Z,8.18
2023-03-27T07:59:46.325Z,8.43
2023-03-27T08:02:50.718Z,9.00
2023-03-27T08:05:56.774Z,9.02
2023-03-27T08:09:02.848Z,9.08
2023-03-27T08:12:08.037Z,9.28
2023-03-27T08:15:12.013Z,10.08
2023-03-27T08:18:15.773Z,9.77
2023-03-27T08:21:20.155Z,9.86
2023-03-27T08:24:23.888Z,9.27
2023-03-27T08:27:27.622Z,8.97
2023-03-27T08:30:31.769Z,9.11
2023-03-27T08:33:36.499Z,8.96
2023-03-27T08:36:40.356Z,8.87
2023-03-27T08:39:46.672Z,8.41
2023-03-27T08:42:52.360Z,8.27
2023-03-27T08:45:59.197Z,8.53
2023-03-27T08:49:12.105Z,7.93
2023-03-27T08:52:21.687Z,7.78
2023-03-27T08:55:33.797Z,8.21
2023-03-27T08:58:38.127Z,8.21
2023-03-27T09:01:47.075Z,7.75
2023-03-27T09:05:04.111Z,7.40
2023-03-27T09:08:20.621Z,7.58
2023-03-27T09:11:42.468Z,8.01
2023-03-27T09:14:48.480Z,8.17
2023-03-27T09:18:00.815Z,7.69
2023-03-27T09:21:16.918Z,7.90
2023-03-27T09:24:23.899Z,7.88
2023-03-27T09:27:32.869Z,7.43
2023-03-27T09:30:38.358Z,7.33
2023-03-27T09:33:42.537Z,7.49
2023-03-27T09:36:46.958Z,7.81
2023-03-27T09:39:52.277Z,7.94
2023-03-27T09:42:59.181Z,8.09
2023-03-27T09:46:04.549Z,7.84
2023-03-27T09:49:12.521Z,8.03
2023-03-27T09:52:36.853Z,8.28
2023-03-27T09:55:53.131Z,8.24
2023-03-27T09:59:00.394Z,8.27
2023-03-27T10:02:23.435Z,7.85
2023-03-27T10:05:28.065Z,7.58
2023-03-27T10:08:45.127Z,7.52
2023-03-27T10:11:53.184Z,7.52
2023-03-27T10:14:57.481Z,7.56
2023-03-27T10:18:08.228Z,7.73
2023-03-27T10:21:17.084Z,7.95
2023-03-27T10:24:27.080Z,7.86
2023-03-27T10:27:33.306Z,7.67
2023-03-27T10:30:38.040Z,7.72
2023-03-27T10:33:42.420Z,7.86
2023-03-27T10:36:47.044Z,7.71
2023-03-27T10:39:52.538Z,7.37
2023-03-27T10:42:57.890Z,7.40
2023-03-27T10:46:06.313Z,7.31
2023-03-27T10:49:10.217Z,7.30
2023-03-27T10:52:25.947Z,7.51
2023-03-27T10:55:29.670Z,7.68
2023-03-27T10:58:43.763Z,7.78
2023-03-27T11:01:50.961Z,7.50
2023-03-27T11:04:56.178Z,7.44
2023-03-27T11:08:01.174Z,7.53
2023-03-27T11:11:17.811Z,7.94
2023-03-27T11:14:35.106Z,8.16
2023-03-27T11:18:02.161Z,8.38
2023-03-27T11:21:15.967Z,8.18
2023-03-27T11:24:38.546Z,7.44
2023-03-27T11:27:55.877Z,6.88
2023-03-27T11:31:12.127Z,6.86
2023-03-27T11:34:29.154Z,7.33
2023-03-27T11:37:45.502Z,7.73
2023-03-27T11:40:49.614Z,7.79
2023-03-27T11:43:57.044Z,7.72
2023-03-27T11:47:10.286Z,7.74
2023-03-27T11:50:26.490Z,7.77
2023-03-27T11:53:36.752Z,7.56
2023-03-27T11:56:50.198Z,6.52
2023-03-27T12:00:30.392Z,5.99
2023-03-27T12:03:37.458Z,6.15
2023-03-27T12:07:04.649Z,6.38
2023-03-27T12:10:38.899Z,6.72
2023-03-27T12:14:11.341Z,6.97
2023-03-27T12:17:21.823Z,7.66
2023-03-27T12:20:27.404Z,8.15
2023-03-27T12:23:41.567Z,8.47
2023-03-27T12:26:54.822Z,8.37
2023-03-27T12:30:16.994Z,8.30
2023-03-27T12:33:28.430Z,8.45
2023-03-27T12:36:35.928Z,8.73
2023-03-27T12:39:49.293Z,8.55
2023-03-27T12:42:54.262Z,8.68
2023-03-27T12:46:07.614Z,8.46
2023-03-27T12:49:13.026Z,8.74
2023-03-27T12:52:19.153Z,9.23
2023-03-27T12:55:31.854Z,9.17
2023-03-27T12:58:36.932Z,9.02
2023-03-27T13:05:02.050Z,8.85
2023-03-27T13:08:13.393Z,8.97
2023-03-27T13:11:29.463Z,9.30
2023-03-27T13:14:43.971Z,9.38
2023-03-27T13:17:57.287Z,9.33
2023-03-27T13:21:04.185Z,8.26
2023-03-27T13:24:19.623Z,7.55
2023-03-27T13:27:36.417Z,7.45
2023-03-27T13:30:43.630Z,7.02
2023-03-27T13:34:08.404Z,6.80
2023-03-27T13:37:13.999Z,6.66
2023-03-27T13:40:28.556Z,7.10
2023-03-27T13:43:33.710Z,6.83
2023-03-27T13:46:41.659Z,6.62
2023-03-27T13:49:45.618Z,6.32
2023-03-27T13:52:52.670Z,6.25
2023-03-27T13:56:06.350Z,6.07
2023-03-27T13:59:10.369Z,5.87
2023-03-27T14:02:14.485Z,5.87
2023-03-27T14:05:28.576Z,6.17
2023-03-27T14:08:35.723Z,6.70
2023-03-27T14:11:45.894Z,7.16
2023-03-27T14:14:59.424Z,7.53
2023-03-27T14:18:03.328Z,7.66
2023-03-27T14:21:14.434Z,7.72
2023-03-27T14:24:27.525Z,7.61
2023-03-27T14:27:32.645Z,7.63
2023-03-27T14:30:43.963Z,7.49
2023-03-27T14:34:12.203Z,7.34
2023-03-27T14:37:30.671Z,7.22
2023-03-27T14:40:36.750Z,7.14
2023-03-27T14:43:44.465Z,7.08
2023-03-27T14:46:48.698Z,6.93
2023-03-27T14:49:58.866Z,6.66
2023-03-27T14:53:06.155Z,6.28
2023-03-27T14:56:23.529Z,5.99
2023-03-27T14:59:34.733Z,6.20
2023-03-27T15:02:39.276Z,6.26
2023-03-27T15:05:54.022Z,6.40
2023-03-27T15:09:00.072Z,6.37
2023-03-27T15:12:04.215Z,6.56
2023-03-27T15:15:20.970Z,6.66
2023-03-27T15:18:28.271Z,6.46
2023-03-27T15:21:44.372Z,6.32
2023-03-27T15:24:52.565Z,6.18
2023-03-27T15:27:58.945Z,6.03
2023-03-27T15:31:04.684Z,6.07
2023-03-27T15:34:17.824Z,6.08
2023-03-27T15:37:25.089Z,6.10
2023-03-27T15:40:37.503Z,6.05
2023-03-27T15:43:43.307Z,5.98
2023-03-27T15:46:53.027Z,6.00
2023-03-27T15:50:29.548Z,5.95
2023-03-27T15:53:33.352Z,6.07
2023-03-27T15:56:40.279Z,5.96
2023-03-27T15:59:51.959Z,6.05
2023-03-27T16:02:57.688Z,6.09
2023-03-27T16:06:02.635Z,6.16
2023-03-27T16:09:25.647Z,6.17
2023-03-27T16:12:34.424Z,6.26
2023-03-27T16:15:41.357Z,6.13
2023-03-27T16:18:46.405Z,6.07
2023-03-27T16:21:55.055Z,6.13
2023-03-27T16:25:00.275Z,6.06
2023-03-27T16:28:07.113Z,5.95
2023-03-27T16:31:15.908Z,5.84
2023-03-27T16:34:22.227Z,5.74
2023-03-27T16:37:27.629Z,5.60
2023-03-27T16:40:31.620Z,5.54
2023-03-27T16:43:35.707Z,5.59
2023-03-27T16:46:39.780Z,5.64
2023-03-27T16:49:43.852Z,5.50
2023-03-27T16:52:48.126Z,5.43
2023-03-27T16:55:55.341Z,5.42
2023-03-27T16:58:59.723Z,5.23
2023-03-27T17:02:03.686Z,5.23
2023-03-27T17:05:08.301Z,5.16
2023-03-27T17:08:15.746Z,5.26
2023-03-27T17:11:19.591Z,5.35
2023-03-27T17:14:23.803Z,5.32
2023-03-27T17:17:27.740Z,5.39
2023-03-27T17:20:31.942Z,5.48
2023-03-27T17:23:36.334Z,5.39
2023-03-27T17:26:40.629Z,5.27
2023-03-27T17:29:44.542Z,5.15
2023-03-27T17:32:48.322Z,5.15
2023-03-27T17:35:52.123Z,5.05
2023-03-27T17:38:56.191Z,4.78
2023-03-27T17:42:00.206Z,4.40
2023-03-27T17:45:04.432Z,4.26
2023-03-27T17:48:10.781Z,4.24
2023-03-27T17:51:14.965Z,4.10
2023-03-27T17:54:18.958Z,4.01
2023-03-27T17:57:23.011Z,3.88
2023-03-27T18:00:27.488Z,3.76
2023-03-27T18:03:31.508Z,3.76
2023-03-27T18:06:36.568Z,3.73
2023-03-27T18:09:40.855Z,3.64
2023-03-27T18:12:44.762Z,3.71
2023-03-27T18:15:55.146Z,3.71
2023-03-27T18:18:59.462Z,3.59
2023-03-27T18:22:03.414Z,3.49
2023-03-27T18:25:08.713Z,3.50
2023-03-27T18:28:13.100Z,3.38
2023-03-27T18:31:17.746Z,3.32
2023-03-27T18:34:22.350Z,3.32
2023-03-27T18:37:26.320Z,3.43
2023-03-27T18:40:32.777Z,3.42
2023-03-27T18:43:36.751Z,3.42
2023-03-27T18:46:42.223Z,3.41
2023-03-27T18:49:46.138Z,3.34
2023-03-27T18:52:50.311Z,3.35
2023-03-27T18:55:54.468Z,3.27
2023-03-27T18:58:58.507Z,3.17
2023-03-27T19:02:02.466Z,3.16
2023-03-27T19:05:07.297Z,3.10
2023-03-27T19:08:11.156Z,3.08
2023-03-27T19:11:14.762Z,2.99
2023-03-27T19:14:19.042Z,2.90
2023-03-27T19:17:23.254Z,2.97
2023-03-27T19:20:27.218Z,2.86
2023-03-27T19:23:31.677Z,2.82
2023-03-27T19:26:37.293Z,2.77
2023-03-27T19:29:41.415Z,2.67
2023-03-27T19:32:45.369Z,2.62
2023-03-27T19:35:51.862Z,2.59
2023-03-27T19:38:56.251Z,2.64
2023-03-27T19:42:00.400Z,2.56
2023-03-27T19:45:05.243Z,2.58
2023-03-27T19:48:09.028Z,2.55
2023-03-27T19:51:13.176Z,2.53
2023-03-27T19:54:17.077Z,2.49
2023-03-27T19:57:21.020Z,2.50
2023-03-27T20:00:24.788Z,2.56
2023-03-27T20:03:29.413Z,2.62
2023-03-27T20:06:33.955Z,2.69
2023-03-27T20:09:38.181Z,2.75
2023-03-27T20:12:41.872Z,2.84
2023-03-27T20:15:46.786Z,3.01
2023-03-27T20:18:55.229Z,3.10
2023-03-27T20:22:02.433Z,3.12
2023-03-27T20:25:06.949Z,3.21
2023-03-27T20:28:11.268Z,3.23
2023-03-27T20:31:16.170Z,3.19
2023-03-27T20:34:22.543Z,3.14
2023-03-27T20:37:29.826Z,3.05
2023-03-27T20:40:52.729Z,3.04
2023-03-27T20:43:59.141Z,3.04
2023-03-27T20:47:10.753Z,3.04
2023-03-27T20:50:15.450Z,2.98
2023-03-27T20:53:26.282Z,2.85
2023-03-27T20:56:30.675Z,2.91
2023-03-27T20:59:34.471Z,2.84
2023-03-27T21:02:38.460Z,2.90
2023-03-27T21:05:42.707Z,2.95
2023-03-27T21:08:50.636Z,3.03
2023-03-27T21:11:55.243Z,2.97
2023-03-27T21:14:59.704Z,2.95
2023-03-27T21:18:03.609Z,2.94
2023-03-27T21:21:07.881Z,2.85
2023-03-27T21:24:13.226Z,2.76
2023-03-27T21:27:17.071Z,2.83
2023-03-27T21:30:21.040Z,2.77
2023-03-27T21:33:24.962Z,2.77
2023-03-27T21:36:29.994Z,2.78
2023-03-27T21:39:34.401Z,2.77
2023-03-27T21:42:38.572Z,2.79
2023-03-27T21:45:42.557Z,2.76
2023-03-27T21:48:50.924Z,2.70
2023-03-27T21:51:56.092Z,2.75
2023-03-27T21:55:03.282Z,2.70
2023-03-27T21:58:07.488Z,2.61
2023-03-27T22:01:11.782Z,2.63
2023-03-27T22:04:16.161Z,2.59
2023-03-27T22:07:20.330Z,2.71
2023-03-27T22:10:24.341Z,2.62
2023-03-27T22:13:28.554Z,2.59
2023-03-27T22:16:32.497Z,2.62
2023-03-27T22:19:36.499Z,2.67
2023-03-27T22:22:40.412Z,2.75
2023-03-27T22:25:51.304Z,2.77
2023-03-27T22:28:56.421Z,2.92
2023-03-27T22:32:00.563Z,3.01
2023-03-27T22:35:04.752Z,3.05
2023-03-27T22:38:09.110Z,3.15
2023-03-27T22:41:13.849Z,3.21
2023-03-27T22:44:18.249Z,3.20
2023-03-27T22:47:22.677Z,3.24
2023-03-27T22:50:26.678Z,3.27
2023-03-27T22:53:31.895Z,3.25
2023-03-27T22:56:36.437Z,3.17
2023-03-27T22:59:40.452Z,3.20
2023-03-27T23:02:44.756Z,3.12
2023-03-27T23:05:49.330Z,3.03
2023-03-27T23:08:53.682Z,2.95
2023-03-27T23:11:57.710Z,2.89
2023-03-27T23:15:01.657Z,2.96
2023-03-27T23:18:05.671Z,2.96
2023-03-27T23:21:11.217Z,3.00
2023-03-27T23:24:15.789Z,3.10
2023-03-27T23:27:19.872Z,3.12
2023-03-27T23:30:23.800Z,3.20
2023-03-27T23:33:28.692Z,3.17
2023-03-27T23:36:32.640Z,3.23
2023-03-27T23:39:36.724Z,3.20
2023-03-27T23:42:40.592Z,3.02
2023-03-27T23:45:44.523Z,3.02
2023-03-27T23:48:48.812Z,3.03
2023-03-27T23:51:52.787Z,3.01
2023-03-27T23:54:56.853Z,3.10
2023-03-27T23:58:00.531Z,3.13
